sensor_id;sensor_type;location;lat;lon;timestamp;P1;durP1;ratioP1;P2;durP2;ratioP2
5014;SDS011;2526;51.060;4.228;2023-02-11T00:00:42;14.93;;;5.03;;
5014;SDS011;2526;51.060;4.228;2023-02-11T00:03:07;12.32;;;4.93;;
5014;SDS011;2526;51.060;4.228;2023-02-11T00:05:33;11.85;;;5.43;;
5014;SDS011;2526;51.060;4.228;2023-02-11T00:07:58;14.57;;;5.20;;
5014;SDS011;2526;51.060;4.228;2023-02-11T00:10:24;11.02;;;6.45;;
5014;SDS011;2526;51.060;4.228;2023-02-11T00:12:49;13.75;;;3.17;;
5014;SDS011;2526;51.060;4.228;2023-02-11T00:15:15;9.98;;;4.68;;
5014;SDS011;2526;51.060;4.228;2023-02-11T00:17:40;11.10;;;3.53;;
5014;SDS011;2526;51.060;4.228;2023-02-11T00:20:06;6.90;;;4.20;;
5014;SDS011;2526;51.060;4.228;2023-02-11T00:22:31;4.43;;;2.80;;
5014;SDS011;2526;51.060;4.228;2023-02-11T00:24:57;16.60;;;4.03;;
5014;SDS011;2526;51.060;4.228;2023-02-11T00:27:22;5.30;;;3.83;;
5014;SDS011;2526;51.060;4.228;2023-02-11T00:29:48;6.75;;;4.68;;
5014;SDS011;2526;51.060;4.228;2023-02-11T00:32:13;6.10;;;3.83;;
5014;SDS011;2526;51.060;4.228;2023-02-11T00:34:39;8.45;;;4.45;;
5014;SDS011;2526;51.060;4.228;2023-02-11T00:37:04;6.00;;;3.90;;
5014;SDS011;2526;51.060;4.228;2023-02-11T00:39:30;9.95;;;3.33;;
5014;SDS011;2526;51.060;4.228;2023-02-11T00:41:56;4.53;;;2.97;;
5014;SDS011;2526;51.060;4.228;2023-02-11T00:44:21;12.40;;;4.90;;
5014;SDS011;2526;51.060;4.228;2023-02-11T00:46:47;9.57;;;4.45;;
5014;SDS011;2526;51.060;4.228;2023-02-11T00:49:12;3.88;;;3.45;;
5014;SDS011;2526;51.060;4.228;2023-02-11T00:51:38;10.20;;;3.90;;
5014;SDS011;2526;51.060;4.228;2023-02-11T00:54:04;7.45;;;4.22;;
5014;SDS011;2526;51.060;4.228;2023-02-11T00:56:29;12.23;;;4.65;;
5014;SDS011;2526;51.060;4.228;2023-02-11T00:58:55;9.45;;;4.78;;
5014;SDS011;2526;51.060;4.228;2023-02-11T01:01:22;9.73;;;4.43;;
5014;SDS011;2526;51.060;4.228;2023-02-11T01:03:47;8.68;;;3.70;;
5014;SDS011;2526;51.060;4.228;2023-02-11T01:06:13;11.05;;;4.95;;
5014;SDS011;2526;51.060;4.228;2023-02-11T01:08:39;13.18;;;4.93;;
5014;SDS011;2526;51.060;4.228;2023-02-11T01:11:06;9.43;;;4.43;;
5014;SDS011;2526;51.060;4.228;2023-02-11T01:13:33;12.68;;;4.38;;
5014;SDS011;2526;51.060;4.228;2023-02-11T01:15:59;13.50;;;4.80;;
5014;SDS011;2526;51.060;4.228;2023-02-11T01:18:25;17.08;;;4.90;;
5014;SDS011;2526;51.060;4.228;2023-02-11T01:20:51;16.30;;;6.00;;
5014;SDS011;2526;51.060;4.228;2023-02-11T01:23:17;9.63;;;4.28;;
5014;SDS011;2526;51.060;4.228;2023-02-11T01:25:42;13.52;;;5.07;;
5014;SDS011;2526;51.060;4.228;2023-02-11T01:28:15;9.18;;;3.75;;
5014;SDS011;2526;51.060;4.228;2023-02-11T01:30:41;17.00;;;5.53;;
5014;SDS011;2526;51.060;4.228;2023-02-11T01:33:07;14.30;;;6.07;;
5014;SDS011;2526;51.060;4.228;2023-02-11T01:35:32;7.43;;;5.47;;
5014;SDS011;2526;51.060;4.228;2023-02-11T01:37:58;9.65;;;6.30;;
5014;SDS011;2526;51.060;4.228;2023-02-11T01:40:23;14.80;;;6.43;;
5014;SDS011;2526;51.060;4.228;2023-02-11T01:42:50;5.65;;;4.97;;
5014;SDS011;2526;51.060;4.228;2023-02-11T01:48:00;6.63;;;4.70;;
5014;SDS011;2526;51.060;4.228;2023-02-11T01:50:26;12.15;;;4.72;;
5014;SDS011;2526;51.060;4.228;2023-02-11T01:52:52;11.50;;;4.82;;
5014;SDS011;2526;51.060;4.228;2023-02-11T01:55:17;11.35;;;4.22;;
5014;SDS011;2526;51.060;4.228;2023-02-11T01:58:02;11.02;;;4.75;;
5014;SDS011;2526;51.060;4.228;2023-02-11T02:02:56;18.85;;;5.88;;
5014;SDS011;2526;51.060;4.228;2023-02-11T02:07:54;6.28;;;3.47;;
5014;SDS011;2526;51.060;4.228;2023-02-11T02:10:22;11.85;;;5.18;;
5014;SDS011;2526;51.060;4.228;2023-02-11T02:12:48;7.65;;;5.20;;
5014;SDS011;2526;51.060;4.228;2023-02-11T02:17:45;12.70;;;4.80;;
5014;SDS011;2526;51.060;4.228;2023-02-11T02:25:37;10.52;;;3.85;;
5014;SDS011;2526;51.060;4.228;2023-02-11T02:30:59;14.13;;;5.28;;
5014;SDS011;2526;51.060;4.228;2023-02-11T02:39:27;9.68;;;4.85;;
5014;SDS011;2526;51.060;4.228;2023-02-11T02:41:53;8.77;;;5.22;;
5014;SDS011;2526;51.060;4.228;2023-02-11T02:44:20;13.60;;;4.55;;
5014;SDS011;2526;51.060;4.228;2023-02-11T02:46:45;14.40;;;5.70;;
5014;SDS011;2526;51.060;4.228;2023-02-11T02:49:12;9.63;;;6.10;;
5014;SDS011;2526;51.060;4.228;2023-02-11T02:59:58;7.05;;;5.57;;
5014;SDS011;2526;51.060;4.228;2023-02-11T03:02:30;7.95;;;4.60;;
5014;SDS011;2526;51.060;4.228;2023-02-11T03:12:41;6.40;;;3.97;;
5014;SDS011;2526;51.060;4.228;2023-02-11T03:15:08;20.08;;;5.38;;
5014;SDS011;2526;51.060;4.228;2023-02-11T03:17:35;8.50;;;5.07;;
5014;SDS011;2526;51.060;4.228;2023-02-11T03:20:03;10.15;;;4.80;;
5014;SDS011;2526;51.060;4.228;2023-02-11T03:22:31;6.78;;;5.53;;
5014;SDS011;2526;51.060;4.228;2023-02-11T03:24:57;11.15;;;4.57;;
5014;SDS011;2526;51.060;4.228;2023-02-11T03:27:26;8.70;;;5.25;;
5014;SDS011;2526;51.060;4.228;2023-02-11T03:32:47;15.45;;;4.95;;
5014;SDS011;2526;51.060;4.228;2023-02-11T03:35:35;5.50;;;4.43;;
5014;SDS011;2526;51.060;4.228;2023-02-11T03:38:00;23.75;;;6.35;;
5014;SDS011;2526;51.060;4.228;2023-02-11T03:40:36;18.08;;;6.20;;
5014;SDS011;2526;51.060;4.228;2023-02-11T03:43:07;6.20;;;3.92;;
5014;SDS011;2526;51.060;4.228;2023-02-11T03:45:34;7.20;;;3.72;;
5014;SDS011;2526;51.060;4.228;2023-02-11T03:48:07;17.15;;;6.03;;
5014;SDS011;2526;51.060;4.228;2023-02-11T03:50:35;13.25;;;5.82;;
5014;SDS011;2526;51.060;4.228;2023-02-11T03:53:01;13.80;;;6.25;;
5014;SDS011;2526;51.060;4.228;2023-02-11T03:55:27;10.32;;;7.05;;
5014;SDS011;2526;51.060;4.228;2023-02-11T03:57:54;12.40;;;5.07;;
5014;SDS011;2526;51.060;4.228;2023-02-11T04:00:20;12.18;;;5.40;;
5014;SDS011;2526;51.060;4.228;2023-02-11T04:02:45;11.57;;;5.78;;
5014;SDS011;2526;51.060;4.228;2023-02-11T04:05:12;14.32;;;5.78;;
5014;SDS011;2526;51.060;4.228;2023-02-11T04:07:38;11.68;;;5.82;;
5014;SDS011;2526;51.060;4.228;2023-02-11T04:10:04;17.20;;;5.45;;
5014;SDS011;2526;51.060;4.228;2023-02-11T04:12:30;16.38;;;5.53;;
5014;SDS011;2526;51.060;4.228;2023-02-11T04:14:55;8.38;;;5.90;;
5014;SDS011;2526;51.060;4.228;2023-02-11T04:17:20;11.60;;;5.57;;
5014;SDS011;2526;51.060;4.228;2023-02-11T04:19:46;9.65;;;5.32;;
5014;SDS011;2526;51.060;4.228;2023-02-11T04:22:11;15.68;;;5.90;;
5014;SDS011;2526;51.060;4.228;2023-02-11T04:24:37;9.98;;;5.78;;
5014;SDS011;2526;51.060;4.228;2023-02-11T04:27:02;15.27;;;6.35;;
5014;SDS011;2526;51.060;4.228;2023-02-11T04:29:28;15.10;;;6.05;;
5014;SDS011;2526;51.060;4.228;2023-02-11T04:31:53;16.48;;;5.80;;
5014;SDS011;2526;51.060;4.228;2023-02-11T04:34:19;16.75;;;4.57;;
5014;SDS011;2526;51.060;4.228;2023-02-11T04:36:44;14.25;;;5.97;;
5014;SDS011;2526;51.060;4.228;2023-02-11T04:39:10;11.27;;;5.53;;
5014;SDS011;2526;51.060;4.228;2023-02-11T04:41:35;15.93;;;6.85;;
5014;SDS011;2526;51.060;4.228;2023-02-11T04:44:01;10.75;;;4.45;;
5014;SDS011;2526;51.060;4.228;2023-02-11T04:46:26;11.07;;;6.78;;
5014;SDS011;2526;51.060;4.228;2023-02-11T04:48:52;11.57;;;5.95;;
5014;SDS011;2526;51.060;4.228;2023-02-11T04:51:17;11.73;;;6.25;;
5014;SDS011;2526;51.060;4.228;2023-02-11T04:53:43;19.30;;;5.93;;
5014;SDS011;2526;51.060;4.228;2023-02-11T04:56:08;14.88;;;6.40;;
5014;SDS011;2526;51.060;4.228;2023-02-11T04:58:33;14.07;;;6.38;;
5014;SDS011;2526;51.060;4.228;2023-02-11T05:01:08;13.55;;;7.55;;
5014;SDS011;2526;51.060;4.228;2023-02-11T05:03:34;10.45;;;6.15;;
5014;SDS011;2526;51.060;4.228;2023-02-11T05:06:00;13.95;;;6.70;;
5014;SDS011;2526;51.060;4.228;2023-02-11T05:08:25;16.40;;;5.63;;
5014;SDS011;2526;51.060;4.228;2023-02-11T05:10:52;11.32;;;5.65;;
5014;SDS011;2526;51.060;4.228;2023-02-11T05:13:18;16.35;;;8.20;;
5014;SDS011;2526;51.060;4.228;2023-02-11T05:15:43;12.48;;;6.03;;
5014;SDS011;2526;51.060;4.228;2023-02-11T05:18:09;15.02;;;6.35;;
5014;SDS011;2526;51.060;4.228;2023-02-11T05:20:36;14.65;;;6.43;;
5014;SDS011;2526;51.060;4.228;2023-02-11T05:23:02;11.73;;;6.15;;
5014;SDS011;2526;51.060;4.228;2023-02-11T05:25:27;15.82;;;6.47;;
5014;SDS011;2526;51.060;4.228;2023-02-11T05:27:53;10.10;;;5.97;;
5014;SDS011;2526;51.060;4.228;2023-02-11T05:30:18;23.80;;;8.63;;
5014;SDS011;2526;51.060;4.228;2023-02-11T05:32:44;14.85;;;8.50;;
5014;SDS011;2526;51.060;4.228;2023-02-11T05:35:09;13.80;;;7.93;;
5014;SDS011;2526;51.060;4.228;2023-02-11T05:37:35;19.13;;;6.50;;
5014;SDS011;2526;51.060;4.228;2023-02-11T05:40:00;13.95;;;7.00;;
5014;SDS011;2526;51.060;4.228;2023-02-11T05:42:25;13.15;;;8.10;;
5014;SDS011;2526;51.060;4.228;2023-02-11T05:44:51;12.60;;;7.57;;
5014;SDS011;2526;51.060;4.228;2023-02-11T05:47:16;19.63;;;8.40;;
5014;SDS011;2526;51.060;4.228;2023-02-11T05:49:42;20.15;;;10.02;;
5014;SDS011;2526;51.060;4.228;2023-02-11T05:52:07;22.92;;;8.43;;
5014;SDS011;2526;51.060;4.228;2023-02-11T05:54:33;19.00;;;9.88;;
5014;SDS011;2526;51.060;4.228;2023-02-11T05:56:58;19.00;;;9.90;;
5014;SDS011;2526;51.060;4.228;2023-02-11T05:59:23;14.43;;;7.57;;
5014;SDS011;2526;51.060;4.228;2023-02-11T06:01:49;18.13;;;9.55;;
5014;SDS011;2526;51.060;4.228;2023-02-11T06:04:14;17.33;;;6.97;;
5014;SDS011;2526;51.060;4.228;2023-02-11T06:06:40;18.85;;;8.35;;
5014;SDS011;2526;51.060;4.228;2023-02-11T06:09:05;16.88;;;8.70;;
5014;SDS011;2526;51.060;4.228;2023-02-11T06:11:31;12.60;;;8.30;;
5014;SDS011;2526;51.060;4.228;2023-02-11T06:13:56;24.30;;;9.23;;
5014;SDS011;2526;51.060;4.228;2023-02-11T06:16:22;15.27;;;9.23;;
5014;SDS011;2526;51.060;4.228;2023-02-11T06:18:48;23.48;;;11.38;;
5014;SDS011;2526;51.060;4.228;2023-02-11T06:21:13;16.13;;;9.32;;
5014;SDS011;2526;51.060;4.228;2023-02-11T06:23:39;16.02;;;8.10;;
5014;SDS011;2526;51.060;4.228;2023-02-11T06:26:05;18.98;;;9.25;;
5014;SDS011;2526;51.060;4.228;2023-02-11T06:28:31;17.17;;;8.57;;
5014;SDS011;2526;51.060;4.228;2023-02-11T06:31:00;23.45;;;12.85;;
5014;SDS011;2526;51.060;4.228;2023-02-11T06:33:28;19.40;;;9.55;;
5014;SDS011;2526;51.060;4.228;2023-02-11T06:35:53;16.08;;;10.52;;
5014;SDS011;2526;51.060;4.228;2023-02-11T06:38:19;14.85;;;10.93;;
5014;SDS011;2526;51.060;4.228;2023-02-11T06:40:48;17.00;;;9.13;;
5014;SDS011;2526;51.060;4.228;2023-02-11T06:43:13;21.85;;;10.35;;
5014;SDS011;2526;51.060;4.228;2023-02-11T06:45:39;14.90;;;8.82;;
5014;SDS011;2526;51.060;4.228;2023-02-11T06:48:04;18.95;;;9.75;;
5014;SDS011;2526;51.060;4.228;2023-02-11T06:50:30;19.38;;;12.68;;
5014;SDS011;2526;51.060;4.228;2023-02-11T06:52:55;18.30;;;11.05;;
5014;SDS011;2526;51.060;4.228;2023-02-11T06:55:22;21.00;;;10.70;;
5014;SDS011;2526;51.060;4.228;2023-02-11T06:57:48;21.42;;;10.68;;
5014;SDS011;2526;51.060;4.228;2023-02-11T07:00:13;24.45;;;10.10;;
5014;SDS011;2526;51.060;4.228;2023-02-11T07:02:39;23.70;;;12.15;;
5014;SDS011;2526;51.060;4.228;2023-02-11T07:05:05;13.60;;;9.45;;
5014;SDS011;2526;51.060;4.228;2023-02-11T07:07:31;16.98;;;12.73;;
5014;SDS011;2526;51.060;4.228;2023-02-11T07:09:56;19.80;;;11.50;;
5014;SDS011;2526;51.060;4.228;2023-02-11T07:12:22;18.08;;;9.88;;
5014;SDS011;2526;51.060;4.228;2023-02-11T07:14:47;24.05;;;12.68;;
5014;SDS011;2526;51.060;4.228;2023-02-11T07:17:13;22.50;;;12.10;;
5014;SDS011;2526;51.060;4.228;2023-02-11T07:19:39;22.98;;;13.60;;
5014;SDS011;2526;51.060;4.228;2023-02-11T07:22:04;19.95;;;9.57;;
5014;SDS011;2526;51.060;4.228;2023-02-11T07:24:30;18.20;;;11.07;;
5014;SDS011;2526;51.060;4.228;2023-02-11T07:26:55;23.70;;;12.93;;
5014;SDS011;2526;51.060;4.228;2023-02-11T07:29:20;17.48;;;11.77;;
5014;SDS011;2526;51.060;4.228;2023-02-11T07:31:46;22.92;;;10.38;;
5014;SDS011;2526;51.060;4.228;2023-02-11T07:34:11;19.95;;;11.05;;
5014;SDS011;2526;51.060;4.228;2023-02-11T07:36:37;15.80;;;10.95;;
5014;SDS011;2526;51.060;4.228;2023-02-11T07:39:02;24.45;;;12.18;;
5014;SDS011;2526;51.060;4.228;2023-02-11T07:41:28;26.67;;;14.80;;
5014;SDS011;2526;51.060;4.228;2023-02-11T07:43:54;24.98;;;12.18;;
5014;SDS011;2526;51.060;4.228;2023-02-11T07:46:21;19.80;;;11.80;;
5014;SDS011;2526;51.060;4.228;2023-02-11T07:48:47;22.13;;;12.57;;
5014;SDS011;2526;51.060;4.228;2023-02-11T07:51:14;20.65;;;12.15;;
5014;SDS011;2526;51.060;4.228;2023-02-11T07:53:39;28.48;;;14.63;;
5014;SDS011;2526;51.060;4.228;2023-02-11T07:56:05;25.45;;;14.15;;
5014;SDS011;2526;51.060;4.228;2023-02-11T07:58:31;25.88;;;13.43;;
5014;SDS011;2526;51.060;4.228;2023-02-11T08:01:10;24.05;;;12.95;;
5014;SDS011;2526;51.060;4.228;2023-02-11T08:03:36;28.05;;;14.20;;
5014;SDS011;2526;51.060;4.228;2023-02-11T08:06:06;27.52;;;12.50;;
5014;SDS011;2526;51.060;4.228;2023-02-11T08:08:31;20.58;;;13.57;;
5014;SDS011;2526;51.060;4.228;2023-02-11T08:10:57;24.63;;;14.27;;
5014;SDS011;2526;51.060;4.228;2023-02-11T08:13:22;31.55;;;13.45;;
5014;SDS011;2526;51.060;4.228;2023-02-11T08:15:48;26.05;;;12.88;;
5014;SDS011;2526;51.060;4.228;2023-02-11T08:18:13;24.05;;;13.82;;
5014;SDS011;2526;51.060;4.228;2023-02-11T08:20:39;28.40;;;14.77;;
5014;SDS011;2526;51.060;4.228;2023-02-11T08:23:05;24.63;;;14.90;;
5014;SDS011;2526;51.060;4.228;2023-02-11T08:25:31;17.90;;;11.43;;
5014;SDS011;2526;51.060;4.228;2023-02-11T08:27:56;23.88;;;14.63;;
5014;SDS011;2526;51.060;4.228;2023-02-11T08:30:22;27.33;;;15.77;;
5014;SDS011;2526;51.060;4.228;2023-02-11T08:32:48;30.25;;;14.57;;
5014;SDS011;2526;51.060;4.228;2023-02-11T08:35:13;26.52;;;16.15;;
5014;SDS011;2526;51.060;4.228;2023-02-11T08:37:39;23.13;;;15.82;;
5014;SDS011;2526;51.060;4.228;2023-02-11T08:40:05;26.65;;;16.90;;
5014;SDS011;2526;51.060;4.228;2023-02-11T08:42:30;28.98;;;13.15;;
5014;SDS011;2526;51.060;4.228;2023-02-11T08:44:56;29.17;;;15.70;;
5014;SDS011;2526;51.060;4.228;2023-02-11T08:47:22;28.08;;;17.50;;
5014;SDS011;2526;51.060;4.228;2023-02-11T08:49:47;22.90;;;13.60;;
5014;SDS011;2526;51.060;4.228;2023-02-11T08:52:13;27.13;;;15.02;;
5014;SDS011;2526;51.060;4.228;2023-02-11T08:54:39;21.23;;;13.93;;
5014;SDS011;2526;51.060;4.228;2023-02-11T08:57:04;23.75;;;14.35;;
5014;SDS011;2526;51.060;4.228;2023-02-11T08:59:30;31.15;;;17.00;;
5014;SDS011;2526;51.060;4.228;2023-02-11T09:01:55;32.15;;;18.05;;
5014;SDS011;2526;51.060;4.228;2023-02-11T09:04:21;26.33;;;16.83;;
5014;SDS011;2526;51.060;4.228;2023-02-11T09:06:46;26.38;;;16.90;;
5014;SDS011;2526;51.060;4.228;2023-02-11T09:09:12;27.65;;;18.63;;
5014;SDS011;2526;51.060;4.228;2023-02-11T09:11:38;26.95;;;19.63;;
5014;SDS011;2526;51.060;4.228;2023-02-11T09:14:05;33.15;;;17.88;;
5014;SDS011;2526;51.060;4.228;2023-02-11T09:16:31;30.83;;;20.17;;
5014;SDS011;2526;51.060;4.228;2023-02-11T09:18:58;26.55;;;17.77;;
5014;SDS011;2526;51.060;4.228;2023-02-11T09:21:24;29.65;;;18.85;;
5014;SDS011;2526;51.060;4.228;2023-02-11T09:23:50;30.13;;;18.55;;
5014;SDS011;2526;51.060;4.228;2023-02-11T09:26:19;34.58;;;20.40;;
5014;SDS011;2526;51.060;4.228;2023-02-11T09:28:45;31.95;;;19.25;;
5014;SDS011;2526;51.060;4.228;2023-02-11T09:31:12;33.83;;;19.85;;
5014;SDS011;2526;51.060;4.228;2023-02-11T09:33:38;32.03;;;18.85;;
5014;SDS011;2526;51.060;4.228;2023-02-11T09:36:06;35.72;;;20.50;;
5014;SDS011;2526;51.060;4.228;2023-02-11T09:38:32;40.17;;;22.85;;
5014;SDS011;2526;51.060;4.228;2023-02-11T09:40:57;33.78;;;21.92;;
5014;SDS011;2526;51.060;4.228;2023-02-11T09:43:24;31.27;;;18.63;;
5014;SDS011;2526;51.060;4.228;2023-02-11T09:45:53;37.13;;;21.23;;
5014;SDS011;2526;51.060;4.228;2023-02-11T09:48:21;33.03;;;20.75;;
5014;SDS011;2526;51.060;4.228;2023-02-11T09:50:50;36.72;;;22.58;;
5014;SDS011;2526;51.060;4.228;2023-02-11T09:53:18;31.85;;;21.38;;
5014;SDS011;2526;51.060;4.228;2023-02-11T09:55:46;42.92;;;23.10;;
5014;SDS011;2526;51.060;4.228;2023-02-11T09:58:14;38.42;;;22.77;;
5014;SDS011;2526;51.060;4.228;2023-02-11T10:00:47;35.03;;;23.05;;
5014;SDS011;2526;51.060;4.228;2023-02-11T10:11:07;50.55;;;26.33;;
5014;SDS011;2526;51.060;4.228;2023-02-11T10:13:42;37.80;;;23.35;;
5014;SDS011;2526;51.060;4.228;2023-02-11T10:16:29;38.38;;;26.92;;
5014;SDS011;2526;51.060;4.228;2023-02-11T10:24:11;37.35;;;25.83;;
5014;SDS011;2526;51.060;4.228;2023-02-11T10:26:37;39.90;;;25.27;;
5014;SDS011;2526;51.060;4.228;2023-02-11T10:29:19;39.80;;;26.70;;
5014;SDS011;2526;51.060;4.228;2023-02-11T10:31:47;40.47;;;23.05;;
5014;SDS011;2526;51.060;4.228;2023-02-11T10:34:14;34.90;;;23.10;;
5014;SDS011;2526;51.060;4.228;2023-02-11T10:36:40;43.53;;;28.33;;
5014;SDS011;2526;51.060;4.228;2023-02-11T10:39:19;40.80;;;24.10;;
5014;SDS011;2526;51.060;4.228;2023-02-11T10:41:46;29.83;;;21.25;;
5014;SDS011;2526;51.060;4.228;2023-02-11T10:46:55;44.55;;;26.83;;
5014;SDS011;2526;51.060;4.228;2023-02-11T10:49:41;34.33;;;26.95;;
5014;SDS011;2526;51.060;4.228;2023-02-11T10:52:14;45.15;;;24.92;;
5014;SDS011;2526;51.060;4.228;2023-02-11T10:54:40;39.50;;;27.63;;
5014;SDS011;2526;51.060;4.228;2023-02-11T10:57:05;36.47;;;26.48;;
5014;SDS011;2526;51.060;4.228;2023-02-11T10:59:36;45.75;;;25.00;;
5014;SDS011;2526;51.060;4.228;2023-02-11T11:02:06;45.83;;;25.40;;
5014;SDS011;2526;51.060;4.228;2023-02-11T11:04:44;36.90;;;23.55;;
5014;SDS011;2526;51.060;4.228;2023-02-11T11:15:24;37.42;;;25.65;;
5014;SDS011;2526;51.060;4.228;2023-02-11T11:17:50;37.17;;;23.55;;
5014;SDS011;2526;51.060;4.228;2023-02-11T11:20:31;33.72;;;23.65;;
5014;SDS011;2526;51.060;4.228;2023-02-11T11:25:58;34.33;;;23.63;;
5014;SDS011;2526;51.060;4.228;2023-02-11T11:28:25;35.55;;;24.60;;
5014;SDS011;2526;51.060;4.228;2023-02-11T11:30:52;30.42;;;22.30;;
5014;SDS011;2526;51.060;4.228;2023-02-11T11:33:20;35.22;;;22.52;;
5014;SDS011;2526;51.060;4.228;2023-02-11T11:35:54;38.13;;;22.80;;
5014;SDS011;2526;51.060;4.228;2023-02-11T11:38:21;33.30;;;22.00;;
5014;SDS011;2526;51.060;4.228;2023-02-11T11:40:47;41.00;;;23.08;;
5014;SDS011;2526;51.060;4.228;2023-02-11T11:43:32;40.50;;;25.73;;
5014;SDS011;2526;51.060;4.228;2023-02-11T11:45:58;36.75;;;25.77;;
5014;SDS011;2526;51.060;4.228;2023-02-11T11:48:25;32.80;;;20.48;;
5014;SDS011;2526;51.060;4.228;2023-02-11T11:51:03;31.15;;;21.83;;
5014;SDS011;2526;51.060;4.228;2023-02-11T11:53:38;35.70;;;23.08;;
5014;SDS011;2526;51.060;4.228;2023-02-11T11:56:05;39.25;;;23.85;;
5014;SDS011;2526;51.060;4.228;2023-02-11T11:58:33;39.05;;;23.27;;
5014;SDS011;2526;51.060;4.228;2023-02-11T12:06:25;31.23;;;21.13;;
5014;SDS011;2526;51.060;4.228;2023-02-11T12:17:33;35.70;;;21.23;;
5014;SDS011;2526;51.060;4.228;2023-02-11T12:25:21;29.05;;;23.35;;
5014;SDS011;2526;51.060;4.228;2023-02-11T12:27:53;30.85;;;21.40;;
5014;SDS011;2526;51.060;4.228;2023-02-11T12:33:15;32.35;;;21.08;;
5014;SDS011;2526;51.060;4.228;2023-02-11T12:41:30;34.08;;;21.20;;
5014;SDS011;2526;51.060;4.228;2023-02-11T12:44:39;24.17;;;18.25;;
5014;SDS011;2526;51.060;4.228;2023-02-11T12:47:05;32.28;;;21.25;;
5014;SDS011;2526;51.060;4.228;2023-02-11T12:49:40;26.42;;;19.98;;
5014;SDS011;2526;51.060;4.228;2023-02-11T12:57:22;24.33;;;17.92;;
5014;SDS011;2526;51.060;4.228;2023-02-11T13:00:02;33.25;;;19.55;;
5014;SDS011;2526;51.060;4.228;2023-02-11T13:07:39;30.23;;;20.67;;
5014;SDS011;2526;51.060;4.228;2023-02-11T13:12:33;27.23;;;18.25;;
5014;SDS011;2526;51.060;4.228;2023-02-11T13:15:18;31.92;;;19.98;;
5014;SDS011;2526;51.060;4.228;2023-02-11T13:17:47;36.85;;;22.77;;
5014;SDS011;2526;51.060;4.228;2023-02-11T13:20:24;34.05;;;21.38;;
5014;SDS011;2526;51.060;4.228;2023-02-11T13:23:10;27.35;;;19.55;;
5014;SDS011;2526;51.060;4.228;2023-02-11T13:26:21;37.80;;;23.77;;
5014;SDS011;2526;51.060;4.228;2023-02-11T13:28:28;29.67;;;21.20;;
5014;SDS011;2526;51.060;4.228;2023-02-11T13:30:56;32.65;;;22.60;;
5014;SDS011;2526;51.060;4.228;2023-02-11T13:38:24;33.55;;;22.27;;
5014;SDS011;2526;51.060;4.228;2023-02-11T13:40:58;35.75;;;22.98;;
5014;SDS011;2526;51.060;4.228;2023-02-11T13:43:26;29.10;;;19.85;;
5014;SDS011;2526;51.060;4.228;2023-02-11T13:45:59;30.30;;;21.15;;
5014;SDS011;2526;51.060;4.228;2023-02-11T13:48:26;37.95;;;24.52;;
5014;SDS011;2526;51.060;4.228;2023-02-11T13:50:55;40.03;;;20.88;;
5014;SDS011;2526;51.060;4.228;2023-02-11T13:53:21;27.02;;;19.63;;
5014;SDS011;2526;51.060;4.228;2023-02-11T13:55:48;27.42;;;21.20;;
5014;SDS011;2526;51.060;4.228;2023-02-11T13:58:15;30.85;;;20.75;;
5014;SDS011;2526;51.060;4.228;2023-02-11T14:00:43;28.80;;;18.80;;
5014;SDS011;2526;51.060;4.228;2023-02-11T14:16:19;33.45;;;23.83;;
5014;SDS011;2526;51.060;4.228;2023-02-11T14:23:42;28.85;;;18.63;;
5014;SDS011;2526;51.060;4.228;2023-02-11T14:28:36;32.83;;;19.70;;
5014;SDS011;2526;51.060;4.228;2023-02-11T14:36:16;24.85;;;18.30;;
5014;SDS011;2526;51.060;4.228;2023-02-11T14:41:10;26.58;;;19.85;;
5014;SDS011;2526;51.060;4.228;2023-02-11T14:43:43;23.95;;;15.95;;
5014;SDS011;2526;51.060;4.228;2023-02-11T14:46:11;20.63;;;15.85;;
5014;SDS011;2526;51.060;4.228;2023-02-11T14:48:36;22.85;;;15.80;;
5014;SDS011;2526;51.060;4.228;2023-02-11T14:51:10;30.25;;;18.48;;
5014;SDS011;2526;51.060;4.228;2023-02-11T14:53:39;22.95;;;16.58;;
5014;SDS011;2526;51.060;4.228;2023-02-11T14:56:15;23.95;;;17.80;;
5014;SDS011;2526;51.060;4.228;2023-02-11T14:58:44;27.10;;;17.33;;
5014;SDS011;2526;51.060;4.228;2023-02-11T15:01:26;23.17;;;16.85;;
5014;SDS011;2526;51.060;4.228;2023-02-11T15:03:56;27.60;;;18.30;;
5014;SDS011;2526;51.060;4.228;2023-02-11T15:06:24;29.20;;;18.33;;
5014;SDS011;2526;51.060;4.228;2023-02-11T15:08:51;23.50;;;16.38;;
5014;SDS011;2526;51.060;4.228;2023-02-11T15:11:19;25.73;;;16.65;;
5014;SDS011;2526;51.060;4.228;2023-02-11T15:13:45;23.30;;;18.75;;
5014;SDS011;2526;51.060;4.228;2023-02-11T15:16:15;33.03;;;19.20;;
5014;SDS011;2526;51.060;4.228;2023-02-11T15:18:44;23.58;;;15.52;;
5014;SDS011;2526;51.060;4.228;2023-02-11T15:21:10;28.30;;;16.98;;
5014;SDS011;2526;51.060;4.228;2023-02-11T15:23:36;25.20;;;15.23;;
5014;SDS011;2526;51.060;4.228;2023-02-11T15:26:10;22.52;;;17.13;;
5014;SDS011;2526;51.060;4.228;2023-02-11T15:28:36;25.02;;;17.80;;
5014;SDS011;2526;51.060;4.228;2023-02-11T15:31:10;27.48;;;16.35;;
5014;SDS011;2526;51.060;4.228;2023-02-11T15:33:37;25.63;;;16.98;;
5014;SDS011;2526;51.060;4.228;2023-02-11T15:36:03;26.13;;;15.70;;
5014;SDS011;2526;51.060;4.228;2023-02-11T15:38:28;22.80;;;16.38;;
5014;SDS011;2526;51.060;4.228;2023-02-11T15:40:55;25.33;;;16.73;;
5014;SDS011;2526;51.060;4.228;2023-02-11T15:43:21;23.70;;;16.00;;
5014;SDS011;2526;51.060;4.228;2023-02-11T15:48:16;18.80;;;14.65;;
5014;SDS011;2526;51.060;4.228;2023-02-11T15:50:49;25.38;;;16.02;;
5014;SDS011;2526;51.060;4.228;2023-02-11T15:55:43;24.17;;;16.00;;
5014;SDS011;2526;51.060;4.228;2023-02-11T15:58:10;24.85;;;15.18;;
5014;SDS011;2526;51.060;4.228;2023-02-11T16:00:36;22.02;;;17.00;;
5014;SDS011;2526;51.060;4.228;2023-02-11T16:03:02;26.77;;;16.70;;
5014;SDS011;2526;51.060;4.228;2023-02-11T16:05:33;24.08;;;15.88;;
5014;SDS011;2526;51.060;4.228;2023-02-11T16:07:59;23.45;;;14.35;;
5014;SDS011;2526;51.060;4.228;2023-02-11T16:10:29;26.00;;;15.63;;
5014;SDS011;2526;51.060;4.228;2023-02-11T16:17:55;22.83;;;15.70;;
5014;SDS011;2526;51.060;4.228;2023-02-11T16:20:21;23.58;;;18.38;;
5014;SDS011;2526;51.060;4.228;2023-02-11T16:22:46;24.40;;;14.15;;
5014;SDS011;2526;51.060;4.228;2023-02-11T16:25:16;22.25;;;15.57;;
5014;SDS011;2526;51.060;4.228;2023-02-11T16:27:42;23.88;;;15.45;;
5014;SDS011;2526;51.060;4.228;2023-02-11T16:30:26;26.95;;;16.55;;
5014;SDS011;2526;51.060;4.228;2023-02-11T16:32:52;25.92;;;16.70;;
5014;SDS011;2526;51.060;4.228;2023-02-11T16:35:18;26.45;;;16.20;;
5014;SDS011;2526;51.060;4.228;2023-02-11T16:37:43;30.52;;;16.83;;
5014;SDS011;2526;51.060;4.228;2023-02-11T16:40:10;23.15;;;15.82;;
5014;SDS011;2526;51.060;4.228;2023-02-11T16:42:36;29.17;;;20.02;;
5014;SDS011;2526;51.060;4.228;2023-02-11T16:45:01;25.73;;;19.88;;
5014;SDS011;2526;51.060;4.228;2023-02-11T16:47:27;20.52;;;16.92;;
5014;SDS011;2526;51.060;4.228;2023-02-11T16:49:53;23.20;;;17.85;;
5014;SDS011;2526;51.060;4.228;2023-02-11T16:52:19;24.90;;;18.25;;
5014;SDS011;2526;51.060;4.228;2023-02-11T16:54:45;27.60;;;17.33;;
5014;SDS011;2526;51.060;4.228;2023-02-11T16:59:36;29.55;;;17.35;;
5014;SDS011;2526;51.060;4.228;2023-02-11T17:02:02;27.67;;;18.65;;
5014;SDS011;2526;51.060;4.228;2023-02-11T17:04:28;23.42;;;17.88;;
5014;SDS011;2526;51.060;4.228;2023-02-11T17:06:54;23.98;;;19.38;;
5014;SDS011;2526;51.060;4.228;2023-02-11T17:09:21;21.63;;;15.85;;
5014;SDS011;2526;51.060;4.228;2023-02-11T17:11:47;28.10;;;19.00;;
5014;SDS011;2526;51.060;4.228;2023-02-11T17:14:13;25.80;;;19.65;;
5014;SDS011;2526;51.060;4.228;2023-02-11T17:16:39;29.02;;;16.95;;
5014;SDS011;2526;51.060;4.228;2023-02-11T17:19:04;24.05;;;17.88;;
5014;SDS011;2526;51.060;4.228;2023-02-11T17:21:30;28.38;;;19.02;;
5014;SDS011;2526;51.060;4.228;2023-02-11T17:23:56;25.85;;;19.27;;
5014;SDS011;2526;51.060;4.228;2023-02-11T17:26:22;22.42;;;16.60;;
5014;SDS011;2526;51.060;4.228;2023-02-11T17:28:47;28.92;;;19.45;;
5014;SDS011;2526;51.060;4.228;2023-02-11T17:31:13;25.10;;;17.55;;
5014;SDS011;2526;51.060;4.228;2023-02-11T17:33:38;27.50;;;17.67;;